createdAt,value
2017-08-02T00:01:07.886Z,0
2017-08-02T00:02:18.248Z,0
2017-08-02T00:03:28.612Z,0
2017-08-02T00:04:38.997Z,0
2017-08-02T00:05:49.332Z,0
2017-08-02T00:06:59.730Z,0
2017-08-02T00:08:10.073Z,0
2017-08-02T00:09:20.115Z,0
2017-08-02T00:10:30.471Z,0
2017-08-02T00:11:40.832Z,0
2017-08-02T00:12:51.198Z,0
2017-08-02T00:14:01.537Z,0
2017-08-02T00:15:11.898Z,0
2017-08-02T00:16:21.613Z,0
2017-08-02T00:17:31.979Z,0
2017-08-02T00:18:42.017Z,0
2017-08-02T00:19:52.375Z,0
2017-08-02T00:21:02.722Z,0
2017-08-02T00:22:13.089Z,0
2017-08-02T00:23:23.475Z,0
2017-08-02T00:24:33.834Z,0
2017-08-02T00:25:44.198Z,0
2017-08-02T00:26:54.549Z,0
2017-08-02T00:28:04.593Z,0
2017-08-02T00:29:14.988Z,0
2017-08-02T00:30:25.395Z,0
2017-08-02T00:31:35.443Z,0
2017-08-02T00:32:45.801Z,0
2017-08-02T00:33:56.153Z,0
2017-08-02T00:35:06.213Z,0
2017-08-02T00:36:15.986Z,0
2017-08-02T00:37:26.336Z,0
2017-08-02T00:38:36.693Z,0
2017-08-02T00:39:46.415Z,0
2017-08-02T00:40:56.455Z,0
2017-08-02T00:42:06.828Z,0
2017-08-02T00:43:16.861Z,0
2017-08-02T00:44:27.205Z,0
2017-08-02T00:45:37.555Z,0
2017-08-02T00:46:47.591Z,0
2017-08-02T00:47:57.998Z,0
2017-08-02T00:49:08.356Z,0
2017-08-02T00:50:18.712Z,0
2017-08-02T00:51:29.097Z,0
2017-08-02T00:52:39.455Z,0
2017-08-02T00:53:49.534Z,0
2017-08-02T00:54:59.574Z,0
2017-08-02T00:56:09.911Z,0
2017-08-02T00:57:19.972Z,0
2017-08-02T00:58:30.008Z,0
2017-08-02T00:59:40.401Z,0
2017-08-02T01:00:50.436Z,0
2017-08-02T01:02:00.479Z,0
2017-08-02T01:03:10.842Z,0
2017-08-02T01:04:20.903Z,0
2017-08-02T01:05:31.244Z,0
2017-08-02T01:06:41.590Z,0
2017-08-02T01:07:51.930Z,0
2017-08-02T01:09:02.275Z,0
2017-08-02T01:10:12.632Z,0
2017-08-02T01:11:22.987Z,0
2017-08-02T01:12:33.377Z,0
2017-08-02T01:13:43.731Z,0
2017-08-02T01:14:54.077Z,0
2017-08-02T01:16:04.110Z,0
2017-08-02T01:17:14.198Z,0
2017-08-02T01:18:24.533Z,0
2017-08-02T01:19:34.587Z,0
2017-08-02T01:20:44.621Z,0
2017-08-02T01:21:54.962Z,0
2017-08-02T01:23:04.696Z,0
2017-08-02T01:24:14.423Z,0
2017-08-02T01:25:24.483Z,0
2017-08-02T01:26:34.840Z,0
2017-08-02T01:27:45.194Z,0
2017-08-02T01:28:55.608Z,0
2017-08-02T01:30:05.983Z,0
2017-08-02T01:31:16.344Z,0
2017-08-02T01:32:26.385Z,0
2017-08-02T01:33:36.120Z,0
2017-08-02T01:34:46.486Z,0
2017-08-02T01:35:56.840Z,0
2017-08-02T01:37:06.868Z,0
2017-08-02T01:38:17.224Z,0
2017-08-02T01:39:27.570Z,0
2017-08-02T01:40:37.954Z,0
2017-08-02T01:41:48.326Z,0
2017-08-02T01:42:58.371Z,0
2017-08-02T01:44:08.094Z,0
2017-08-02T01:45:18.462Z,0
2017-08-02T01:46:28.885Z,0
2017-08-02T01:47:39.225Z,0
2017-08-02T01:48:49.269Z,0
2017-08-02T01:49:59.635Z,0
2017-08-02T01:51:10.004Z,0
2017-08-02T01:52:20.398Z,0
2017-08-02T01:53:30.746Z,0
2017-08-02T01:54:41.102Z,0
2017-08-02T01:55:51.466Z,0
2017-08-02T01:57:01.499Z,0
2017-08-02T01:58:11.580Z,0
2017-08-02T01:59:21.943Z,0
2017-08-02T02:00:32.301Z,0
2017-08-02T02:01:42.646Z,0
2017-08-02T02:02:53.021Z,0
2017-08-02T02:04:03.388Z,0
2017-08-02T02:05:13.439Z,0
2017-08-02T02:06:23.796Z,0
2017-08-02T02:07:34.143Z,0
2017-08-02T02:08:44.489Z,0
2017-08-02T02:09:54.216Z,0
2017-08-02T02:11:04.566Z,0
2017-08-02T02:12:14.923Z,0
2017-08-02T02:13:25.273Z,0
2017-08-02T02:14:35.673Z,0
2017-08-02T02:15:45.710Z,0
2017-08-02T02:16:55.757Z,0
2017-08-02T02:18:05.797Z,0
2017-08-02T02:19:16.161Z,0
2017-08-02T02:20:26.525Z,0
2017-08-02T02:21:36.888Z,0
2017-08-02T02:22:47.230Z,0
2017-08-02T02:23:57.569Z,0
2017-08-02T02:25:07.922Z,0
2017-08-02T02:26:18.282Z,0
2017-08-02T02:27:28.695Z,0
2017-08-02T02:28:39.060Z,0
2017-08-02T02:29:48.778Z,0
2017-08-02T02:30:59.150Z,0
2017-08-02T02:32:09.512Z,0
2017-08-02T02:33:19.552Z,0
2017-08-02T02:34:29.909Z,0
2017-08-02T02:35:39.671Z,0
2017-08-02T02:36:50.036Z,0
2017-08-02T02:38:00.402Z,0
2017-08-02T02:39:10.486Z,0
2017-08-02T02:40:20.536Z,0
2017-08-02T02:41:30.892Z,0
2017-08-02T02:42:40.932Z,0
2017-08-02T02:43:51.288Z,0
2017-08-02T02:45:01.386Z,0
2017-08-02T02:46:11.745Z,0
2017-08-02T02:47:22.093Z,0
2017-08-02T02:48:32.461Z,0
2017-08-02T02:49:42.806Z,0
2017-08-02T02:50:53.155Z,0
2017-08-02T02:52:03.525Z,0
2017-08-02T02:53:13.877Z,0
2017-08-02T02:54:23.928Z,0
2017-08-02T02:55:34.285Z,4
2017-08-02T02:56:44.377Z,4
2017-08-02T02:57:54.426Z,0
2017-08-02T02:59:04.806Z,0
2017-08-02T03:00:15.164Z,4
2017-08-02T03:01:25.523Z,4
2017-08-02T03:33:34.744Z,144
2017-08-02T03:34:45.084Z,164
2017-08-02T03:35:55.446Z,184
2017-08-02T03:37:05.168Z,208
2017-08-02T03:38:15.513Z,236
2017-08-02T03:39:25.927Z,252
2017-08-02T03:40:36.289Z,272
2017-08-02T03:41:46.646Z,300
2017-08-02T03:42:56.978Z,320
2017-08-02T03:44:06.713Z,348
2017-08-02T03:45:17.110Z,376
2017-08-02T03:46:27.139Z,408
2017-08-02T03:47:37.488Z,436
2017-08-02T03:48:47.848Z,464
2017-08-02T03:49:57.886Z,504
2017-08-02T03:51:08.239Z,568
2017-08-02T03:52:18.284Z,636
2017-08-02T03:53:28.648Z,696
2017-08-02T03:54:38.989Z,764
2017-08-02T03:55:49.361Z,832
2017-08-02T03:56:59.713Z,900
2017-08-02T03:58:10.071Z,972
2017-08-02T03:59:20.433Z,1040
2017-08-02T04:00:30.464Z,1088
2017-08-02T04:01:40.802Z,1144
2017-08-02T04:02:51.216Z,1196
2017-08-02T04:04:01.576Z,1244
2017-08-02T04:05:11.949Z,1292
2017-08-02T04:06:22.288Z,1356
2017-08-02T04:07:32.328Z,1408
2017-08-02T04:08:42.742Z,1436
2017-08-02T04:09:53.097Z,1480
2017-08-02T04:11:03.451Z,1520
2017-08-02T04:12:13.498Z,1568
2017-08-02T04:13:23.853Z,1580
2017-08-02T04:14:33.934Z,1560
2017-08-02T04:15:44.290Z,1532
2017-08-02T04:16:54.330Z,1536
2017-08-02T04:18:04.067Z,1560
2017-08-02T04:19:14.447Z,1588
2017-08-02T04:20:24.874Z,1564
2017-08-02T04:21:34.912Z,1528
2017-08-02T04:22:44.962Z,1488
2017-08-02T04:23:55.327Z,1456
2017-08-02T04:25:05.365Z,1452
2017-08-02T04:26:15.450Z,1468
2017-08-02T04:27:25.825Z,1500
2017-08-02T04:28:35.872Z,1520
2017-08-02T04:29:46.218Z,1516
2017-08-02T04:30:56.575Z,1564
2017-08-02T04:32:07.001Z,1564
2017-08-02T04:33:17.329Z,1596
2017-08-02T04:34:27.378Z,1644
2017-08-02T04:35:37.412Z,1616
2017-08-02T04:36:47.438Z,1512
2017-08-02T04:37:58.556Z,1400
2017-08-02T04:39:08.591Z,1484
2017-08-02T04:40:18.959Z,1368
2017-08-02T04:41:28.686Z,1380
2017-08-02T04:42:38.764Z,1320
2017-08-02T04:43:49.129Z,1348
2017-08-02T04:44:59.180Z,1420
2017-08-02T04:46:09.538Z,1516
2017-08-02T04:47:19.279Z,1688
2017-08-02T04:48:29.637Z,1668
2017-08-02T04:49:40.010Z,1600
2017-08-02T04:50:50.067Z,1740
2017-08-02T04:52:00.113Z,1852
2017-08-02T04:53:10.149Z,1804
2017-08-02T04:54:20.187Z,1888
2017-08-02T04:55:29.903Z,1972
2017-08-02T04:56:40.278Z,2020
2017-08-02T04:57:50.323Z,2068
2017-08-02T04:59:00.691Z,2092
2017-08-02T05:00:11.047Z,2128
2017-08-02T05:01:21.399Z,2168
2017-08-02T05:02:31.420Z,2288
2017-08-02T05:03:41.771Z,2476
2017-08-02T05:04:52.117Z,2800
2017-08-02T05:06:02.509Z,2940
2017-08-02T05:07:12.596Z,3940
2017-08-02T05:08:22.952Z,4616
2017-08-02T05:09:33.332Z,5348
2017-08-02T05:10:43.665Z,5332
2017-08-02T05:11:53.717Z,7256
2017-08-02T05:13:03.798Z,7864
2017-08-02T05:14:14.147Z,7928
2017-08-02T05:15:24.503Z,7220
2017-08-02T05:16:34.530Z,6540
2017-08-02T05:17:44.876Z,8692
2017-08-02T05:18:55.234Z,8288
2017-08-02T05:20:05.588Z,8236
2017-08-02T05:21:15.944Z,3440
2017-08-02T05:22:25.987Z,3180
2017-08-02T05:23:36.335Z,2996
2017-08-02T05:24:46.423Z,2872
2017-08-02T05:25:56.778Z,2840
2017-08-02T05:27:07.125Z,2872
2017-08-02T05:28:17.200Z,2852
2017-08-02T05:29:27.246Z,2784
2017-08-02T05:30:37.658Z,2812
2017-08-02T05:31:48.016Z,2848
2017-08-02T05:32:58.364Z,2888
2017-08-02T05:34:08.095Z,2932
2017-08-02T05:35:17.853Z,2988
2017-08-02T05:36:28.211Z,3056
2017-08-02T05:37:38.567Z,3156
2017-08-02T05:38:48.922Z,3252
2017-08-02T05:39:58.974Z,3396
2017-08-02T05:41:09.033Z,3584
2017-08-02T05:42:19.414Z,3788
2017-08-02T05:43:29.769Z,3960
2017-08-02T05:44:40.111Z,4076
2017-08-02T05:45:50.149Z,4180
2017-08-02T05:46:59.865Z,4308
2017-08-02T05:48:10.227Z,4456
2017-08-02T05:49:19.970Z,4596
2017-08-02T05:50:30.331Z,4680
2017-08-02T05:51:40.691Z,4752
2017-08-02T05:52:51.046Z,4744
2017-08-02T05:54:01.442Z,4748
2017-08-02T05:55:11.823Z,4740
2017-08-02T05:56:22.176Z,4784
2017-08-02T05:57:31.613Z,4844
2017-08-02T05:58:41.660Z,4896
2017-08-02T05:59:52.064Z,4980
2017-08-02T06:01:02.099Z,5064
2017-08-02T06:02:11.833Z,5200
2017-08-02T06:03:22.205Z,5308
2017-08-02T06:04:32.562Z,5300
2017-08-02T06:05:42.988Z,5200
2017-08-02T06:06:53.042Z,5020
2017-08-02T06:08:03.408Z,4848
2017-08-02T06:09:13.774Z,4752
2017-08-02T06:10:23.815Z,4672
2017-08-02T06:11:34.224Z,4556
2017-08-02T06:12:44.589Z,4392
2017-08-02T06:13:54.961Z,4312
2017-08-02T06:15:05.333Z,4312
2017-08-02T06:16:15.675Z,4304
2017-08-02T06:17:26.063Z,4300
2017-08-02T06:18:36.094Z,4380
2017-08-02T06:19:46.474Z,4668
2017-08-02T06:20:56.200Z,6524
2017-08-02T06:22:06.573Z,7076
2017-08-02T06:23:16.917Z,6292
2017-08-02T06:24:26.650Z,5772
2017-08-02T06:25:37.062Z,7124
2017-08-02T06:26:47.414Z,5500
2017-08-02T06:27:57.770Z,5292
2017-08-02T06:29:07.809Z,5408
2017-08-02T06:30:18.211Z,7512
2017-08-02T06:31:28.580Z,7720
2017-08-02T06:32:38.943Z,7744
2017-08-02T06:33:48.360Z,6808
2017-08-02T06:34:58.397Z,6800
2017-08-02T06:36:08.456Z,6752
2017-08-02T06:37:18.841Z,6932
2017-08-02T06:38:29.308Z,6288
2017-08-02T06:39:39.664Z,7328
2017-08-02T06:40:49.470Z,7168
2017-08-02T06:41:59.522Z,7980
2017-08-02T06:43:09.900Z,8908
2017-08-02T06:44:19.937Z,9212
2017-08-02T06:45:30.316Z,8284
2017-08-02T06:46:40.691Z,7412
2017-08-02T06:47:51.044Z,7172
2017-08-02T06:49:01.404Z,7004
2017-08-02T06:50:11.428Z,6816
2017-08-02T06:51:21.778Z,6428
2017-08-02T06:52:32.133Z,6052
2017-08-02T06:53:42.497Z,5892
2017-08-02T06:54:52.541Z,5900
2017-08-02T06:56:02.895Z,6036
2017-08-02T06:57:13.248Z,6176
2017-08-02T06:58:23.349Z,6348
2017-08-02T06:59:33.737Z,6320
2017-08-02T07:00:44.140Z,6276
2017-08-02T07:01:54.189Z,6120
2017-08-02T07:03:04.558Z,5984
2017-08-02T07:04:14.915Z,5844
2017-08-02T07:05:25.264Z,5712
2017-08-02T07:06:35.300Z,5852
2017-08-02T07:07:45.023Z,5664
2017-08-02T07:08:55.388Z,5824
2017-08-02T07:10:05.757Z,5900
2017-08-02T07:11:16.113Z,5892
2017-08-02T07:12:26.473Z,5880
2017-08-02T07:13:36.517Z,5872
2017-08-02T07:14:46.566Z,5932
2017-08-02T07:15:56.985Z,6276
2017-08-02T07:17:07.335Z,6940
2017-08-02T07:18:17.379Z,7260
2017-08-02T07:19:27.747Z,7488
2017-08-02T07:20:38.133Z,7200
2017-08-02T07:21:47.953Z,7100
2017-08-02T07:22:57.992Z,7428
2017-08-02T07:24:08.078Z,8820
2017-08-02T07:25:18.422Z,8088
2017-08-02T07:26:28.769Z,9060
2017-08-02T07:27:38.490Z,8484
2017-08-02T07:28:48.538Z,8212
2017-08-02T07:29:58.906Z,9056
2017-08-02T07:31:08.965Z,8896
2017-08-02T07:32:19.323Z,8748
2017-08-02T07:33:29.380Z,8460
2017-08-02T07:34:39.749Z,7972
2017-08-02T07:35:49.810Z,7504
2017-08-02T07:37:00.171Z,7228
2017-08-02T07:38:10.533Z,6536
2017-08-02T07:39:20.630Z,6608
2017-08-02T07:40:30.352Z,6560
2017-08-02T07:41:40.393Z,5996
2017-08-02T07:42:50.745Z,6220
2017-08-02T07:44:00.484Z,6164
2017-08-02T07:45:10.932Z,5992
2017-08-02T07:46:20.979Z,5896
2017-08-02T07:47:31.360Z,5892
2017-08-02T07:48:41.725Z,5844
2017-08-02T07:49:52.074Z,5792
2017-08-02T07:51:02.477Z,5716
2017-08-02T07:52:12.526Z,5684
2017-08-02T07:53:41.815Z,5660
2017-08-02T07:54:52.176Z,5660
2017-08-02T07:56:02.571Z,5644
2017-08-02T07:57:12.312Z,5660
2017-08-02T07:58:21.733Z,5668
2017-08-02T07:59:31.791Z,5648
2017-08-02T08:00:41.513Z,5676
2017-08-02T08:01:51.920Z,5672
2017-08-02T08:03:01.655Z,5692
2017-08-02T08:04:12.016Z,5708
2017-08-02T08:05:22.058Z,5716
2017-08-02T08:06:32.422Z,5748
2017-08-02T08:07:42.777Z,5756
2017-08-02T08:08:53.144Z,5764
2017-08-02T08:10:03.516Z,5664
2017-08-02T08:11:13.878Z,5728
2017-08-02T08:12:23.918Z,5824
2017-08-02T08:13:34.256Z,5852
2017-08-02T08:14:44.628Z,5980
2017-08-02T08:15:54.699Z,6032
2017-08-02T08:17:05.047Z,6084
2017-08-02T08:18:15.422Z,6184
2017-08-02T08:19:25.777Z,6352
2017-08-02T08:20:36.145Z,6496
2017-08-02T08:21:46.199Z,6804
2017-08-02T08:22:56.246Z,7040
2017-08-02T08:24:06.328Z,7204
2017-08-02T08:25:16.675Z,7256
2017-08-02T08:26:26.738Z,7404
2017-08-02T08:27:37.097Z,7660
2017-08-02T08:28:47.464Z,7856
2017-08-02T08:29:57.897Z,8076
2017-08-02T08:31:08.261Z,8272
2017-08-02T08:32:18.020Z,8512
2017-08-02T08:33:28.085Z,8712
2017-08-02T08:34:38.431Z,8776
2017-08-02T08:35:48.797Z,8760
2017-08-02T08:36:59.169Z,8612
2017-08-02T08:38:09.526Z,8612
2017-08-02T08:39:19.890Z,8704
2017-08-02T08:40:30.238Z,8800
2017-08-02T08:41:40.646Z,8868
2017-08-02T08:42:50.372Z,9024
2017-08-02T08:44:00.739Z,8676
2017-08-02T08:45:11.103Z,9328
2017-08-02T08:46:21.469Z,9616
2017-08-02T08:47:31.568Z,9820
2017-08-02T08:48:41.618Z,9856
2017-08-02T08:49:51.355Z,9668
2017-08-02T08:51:01.395Z,9672
2017-08-02T08:52:11.441Z,9568
2017-08-02T08:53:21.852Z,8864
2017-08-02T08:54:32.201Z,7932
2017-08-02T08:55:42.569Z,8984
2017-08-02T08:56:52.943Z,8108
2017-08-02T08:58:02.998Z,8212
2017-08-02T08:59:13.406Z,8348
2017-08-02T09:00:23.766Z,8420
2017-08-02T09:01:34.150Z,7992
2017-08-02T09:02:44.210Z,8424
2017-08-02T09:03:54.585Z,8364
2017-08-02T09:05:04.936Z,10928
2017-08-02T09:06:15.317Z,11040
2017-08-02T09:07:25.358Z,11232
2017-08-02T09:08:35.732Z,11244
2017-08-02T09:09:46.097Z,11284
2017-08-02T09:10:56.244Z,10744
2017-08-02T09:12:06.304Z,11784
2017-08-02T09:13:16.696Z,10720
2017-08-02T09:14:27.042Z,10088
2017-08-02T09:15:37.391Z,10640
2017-08-02T09:16:47.185Z,12144
2017-08-02T09:17:57.566Z,10752
2017-08-02T09:19:09.721Z,11516
2017-08-02T09:20:21.291Z,9512
2017-08-02T09:22:56.681Z,9164
2017-08-02T09:24:07.132Z,11072
2017-08-02T09:25:17.482Z,9180
2017-08-02T09:26:31.575Z,9044
2017-08-02T09:27:41.959Z,8884
2017-08-02T09:28:52.316Z,8748
2017-08-02T09:30:02.393Z,8824
2017-08-02T09:31:12.192Z,8252
2017-08-02T09:32:22.627Z,8092
2017-08-02T09:33:33.301Z,7952
2017-08-02T09:34:43.715Z,9588
2017-08-02T09:35:54.071Z,6904
2017-08-02T09:37:04.440Z,6236
2017-08-02T09:38:16.692Z,5616
2017-08-02T09:42:19.223Z,4332
2017-08-02T09:43:29.592Z,4284
2017-08-02T09:44:39.646Z,4164
2017-08-02T09:45:50.010Z,4072
2017-08-02T09:47:00.382Z,4004
2017-08-02T09:48:10.766Z,3872
2017-08-02T09:49:20.801Z,3688
2017-08-02T09:50:30.832Z,3468
2017-08-02T09:51:41.201Z,3248
2017-08-02T09:52:51.566Z,3064
2017-08-02T09:54:01.304Z,2948
2017-08-02T09:55:11.670Z,2932
2017-08-02T09:56:24.122Z,3004
2017-08-02T09:57:34.510Z,3212
2017-08-02T09:58:46.270Z,3576
2017-08-02T09:59:58.306Z,4000
2017-08-02T10:01:08.042Z,4456
2017-08-02T10:02:18.414Z,4932
2017-08-02T10:03:28.459Z,5408
2017-08-02T10:04:38.850Z,5892
2017-08-02T10:05:48.901Z,6316
2017-08-02T10:06:59.267Z,6752
2017-08-02T10:08:09.646Z,7120
2017-08-02T10:09:20.012Z,7448
2017-08-02T10:10:30.376Z,7844
2017-08-02T10:11:40.785Z,7892
2017-08-02T10:12:51.144Z,8052
2017-08-02T10:14:01.559Z,8112
2017-08-02T10:15:11.923Z,8120
2017-08-02T10:16:22.272Z,8216
2017-08-02T10:17:32.404Z,8168
2017-08-02T10:18:42.813Z,8128
2017-08-02T10:19:53.168Z,8660
2017-08-02T10:21:03.550Z,10488
2017-08-02T10:22:13.602Z,8008
2017-08-02T10:23:23.685Z,7000
2017-08-02T10:24:34.072Z,7032
2017-08-02T10:25:44.123Z,6640
2017-08-02T10:26:54.175Z,7340
2017-08-02T10:28:04.227Z,8492
2017-08-02T10:29:14.598Z,8000
2017-08-02T10:30:24.993Z,5500
2017-08-02T10:31:35.366Z,8992
2017-08-02T10:32:45.758Z,8732
2017-08-02T10:33:56.122Z,8504
2017-08-02T10:35:06.533Z,8336
2017-08-02T10:36:16.623Z,8172
2017-08-02T10:37:26.991Z,7992
2017-08-02T10:38:37.585Z,7788
2017-08-02T10:39:47.973Z,7644
2017-08-02T10:40:58.355Z,7496
2017-08-02T10:42:08.405Z,7368
2017-08-02T10:43:18.786Z,7268
2017-08-02T10:44:29.156Z,7208
2017-08-02T10:45:39.529Z,7164
2017-08-02T10:46:49.913Z,7132
2017-08-02T10:47:59.982Z,7112
2017-08-02T10:49:10.340Z,7096
2017-08-02T10:50:20.089Z,7116
2017-08-02T10:51:30.440Z,7124
2017-08-02T10:52:40.231Z,7144
2017-08-02T10:53:50.613Z,7144
2017-08-02T10:55:00.982Z,7144
2017-08-02T10:56:11.353Z,7144
2017-08-02T10:57:21.709Z,7140
2017-08-02T10:58:31.757Z,7144
2017-08-02T10:59:42.118Z,7176
2017-08-02T11:00:52.596Z,7220
2017-08-02T11:02:02.658Z,7216
2017-08-02T11:03:12.720Z,7220
2017-08-02T11:04:23.139Z,7240
2017-08-02T11:05:33.253Z,7236
2017-08-02T11:06:43.304Z,7256
2017-08-02T11:07:53.057Z,7288
2017-08-02T11:09:03.675Z,7304
2017-08-02T11:10:14.107Z,7324
2017-08-02T11:11:24.490Z,7344
2017-08-02T11:12:34.527Z,7352
2017-08-02T11:13:44.574Z,7372
2017-08-02T11:14:54.939Z,7388
2017-08-02T11:16:05.368Z,7436
2017-08-02T11:17:15.799Z,7448
2017-08-02T11:18:26.170Z,7468
2017-08-02T11:19:36.233Z,7492
2017-08-02T11:20:46.344Z,7472
2017-08-02T11:21:56.774Z,7472
2017-08-02T11:23:07.143Z,7472
2017-08-02T11:24:17.213Z,7476
2017-08-02T11:25:27.588Z,7508
2017-08-02T11:26:38.692Z,7524
2017-08-02T11:27:49.112Z,7500
2017-08-02T11:28:59.498Z,7508
2017-08-02T11:30:09.872Z,7512
2017-08-02T11:31:20.213Z,7520
2017-08-02T11:32:30.625Z,7560
2017-08-02T11:33:41.134Z,7560
2017-08-02T11:34:53.454Z,7544
2017-08-02T11:36:03.836Z,7524
2017-08-02T11:37:15.819Z,7564
2017-08-02T11:38:25.886Z,7584
2017-08-02T11:39:39.151Z,7572
2017-08-02T11:40:49.532Z,7564
2017-08-02T11:41:59.904Z,7528
2017-08-02T11:43:10.253Z,7624
2017-08-02T11:44:20.326Z,7660
2017-08-02T11:45:30.439Z,7596
2017-08-02T11:46:40.835Z,7584
2017-08-02T11:47:51.201Z,7528
2017-08-02T11:49:01.567Z,7552
2017-08-02T11:50:13.592Z,7600
2017-08-02T11:51:24.028Z,7476
2017-08-02T11:52:34.384Z,7480
2017-08-02T11:53:44.448Z,7680
2017-08-02T11:54:54.846Z,7664
2017-08-02T11:56:05.201Z,7660
2017-08-02T11:57:16.435Z,7664
2017-08-02T11:58:26.809Z,7692
2017-08-02T11:59:37.164Z,7704
2017-08-02T12:00:47.243Z,7704
2017-08-02T12:01:57.602Z,7680
2017-08-02T12:03:08.233Z,7648
2017-08-02T12:04:18.303Z,7608
2017-08-02T12:05:28.361Z,7640
2017-08-02T12:06:38.734Z,7680
2017-08-02T12:07:49.099Z,7704
2017-08-02T12:08:59.507Z,7632
2017-08-02T12:10:09.890Z,7616
2017-08-02T12:11:20.291Z,7620
2017-08-02T12:12:30.676Z,7640
2017-08-02T12:13:41.028Z,7744
2017-08-02T12:14:51.417Z,7676
2017-08-02T12:16:01.794Z,7712
2017-08-02T12:17:12.168Z,7680
2017-08-02T12:18:22.224Z,7664
2017-08-02T12:19:32.292Z,7676
2017-08-02T12:20:42.717Z,7696
2017-08-02T12:21:53.090Z,7700
2017-08-02T12:23:03.155Z,7716
2017-08-02T12:24:13.532Z,7684
2017-08-02T12:25:23.296Z,7668
2017-08-02T12:26:33.750Z,7736
2017-08-02T12:27:44.133Z,7828
2017-08-02T12:28:54.196Z,7852
2017-08-02T12:30:04.259Z,7956
2017-08-02T12:31:14.649Z,7976
2017-08-02T12:32:25.076Z,7948
2017-08-02T12:33:35.471Z,7916
2017-08-02T12:34:45.543Z,7860
2017-08-02T12:35:55.957Z,7760
2017-08-02T12:37:06.327Z,7668
2017-08-02T12:38:16.117Z,7724
2017-08-02T12:39:26.174Z,7792
2017-08-02T12:40:36.568Z,7824
2017-08-02T12:41:46.603Z,7816
2017-08-02T12:42:56.675Z,7812
2017-08-02T12:44:06.835Z,7732
2017-08-02T12:45:17.252Z,7608
2017-08-02T12:46:27.334Z,7564
2017-08-02T12:47:37.423Z,7512
2017-08-02T12:48:47.491Z,7484
2017-08-02T12:49:57.864Z,7460
2017-08-02T12:51:07.904Z,7408
2017-08-02T12:52:18.284Z,7384
2017-08-02T12:53:28.669Z,7348
2017-08-02T12:54:39.404Z,7376
2017-08-02T12:55:49.851Z,7372
2017-08-02T12:57:00.221Z,7328
2017-08-02T12:58:10.277Z,7320
2017-08-02T12:59:20.658Z,7284
2017-08-02T13:00:30.742Z,7276
2017-08-02T13:01:40.844Z,7256
2017-08-02T13:02:53.577Z,7244
2017-08-02T13:04:03.962Z,7212
2017-08-02T13:05:14.031Z,7204
2017-08-02T13:06:23.818Z,7220
2017-08-02T13:07:34.239Z,7196
2017-08-02T13:08:44.633Z,7176
2017-08-02T13:09:55.028Z,7132
2017-08-02T13:11:05.460Z,7156
2017-08-02T13:12:15.844Z,7152
2017-08-02T13:13:25.960Z,7136
2017-08-02T13:14:35.414Z,7104
2017-08-02T13:15:45.518Z,7072
2017-08-02T13:16:55.917Z,7060
2017-08-02T13:18:06.321Z,7060
2017-08-02T13:19:16.752Z,7044
2017-08-02T13:20:27.186Z,7016
2017-08-02T13:21:37.586Z,7000
2017-08-02T13:22:48.000Z,6964
2017-08-02T13:23:58.429Z,6956
2017-08-02T13:25:08.868Z,6952
2017-08-02T13:26:19.241Z,6916
2017-08-02T13:27:29.617Z,6908
2017-08-02T13:28:40.052Z,6896
2017-08-02T13:29:50.441Z,6872
2017-08-02T13:31:00.569Z,6860
2017-08-02T13:32:10.629Z,6856
2017-08-02T13:33:20.728Z,6824
2017-08-02T13:34:31.103Z,6804
2017-08-02T13:35:55.403Z,6788
2017-08-02T13:37:05.497Z,6752
2017-08-02T13:38:44.819Z,6760
2017-08-02T13:39:55.188Z,6740
2017-08-02T13:41:05.266Z,6708
2017-08-02T13:42:15.646Z,6664
2017-08-02T13:43:26.020Z,6652
2017-08-02T13:44:36.479Z,6672
2017-08-02T13:45:46.881Z,6668
2017-08-02T13:46:57.275Z,6632
2017-08-02T13:48:07.636Z,6608
2017-08-02T13:49:18.037Z,6592
2017-08-02T13:50:28.174Z,6572
2017-08-02T13:51:38.560Z,6564
2017-08-02T13:52:48.634Z,6536
2017-08-02T13:53:58.716Z,6500
2017-08-02T13:55:09.125Z,6484
2017-08-02T13:56:19.279Z,6496
2017-08-02T13:57:29.369Z,6492
2017-08-02T13:58:39.735Z,6464
2017-08-02T13:59:50.129Z,6436
2017-08-02T14:01:00.197Z,6420
2017-08-02T14:02:10.327Z,6420
2017-08-02T14:03:20.714Z,6392
2017-08-02T14:04:31.093Z,6368
2017-08-02T14:05:41.147Z,6356
2017-08-02T14:06:51.543Z,6316
2017-08-02T14:08:01.955Z,6280
2017-08-02T14:09:11.710Z,6264
2017-08-02T14:10:22.106Z,6248
2017-08-02T14:11:32.744Z,6232
2017-08-02T14:12:43.133Z,6232
2017-08-02T14:13:53.580Z,6192
2017-08-02T14:15:03.630Z,6184
2017-08-02T14:16:14.054Z,6164
2017-08-02T14:17:24.094Z,6140
2017-08-02T14:18:34.476Z,6112
2017-08-02T14:19:44.892Z,6104
2017-08-02T14:20:54.943Z,6088
2017-08-02T14:22:05.310Z,6064
2017-08-02T14:23:15.357Z,6048
2017-08-02T14:24:25.741Z,6024
2017-08-02T14:25:35.864Z,6004
2017-08-02T14:26:45.934Z,5972
2017-08-02T14:27:56.307Z,5936
2017-08-02T14:29:06.688Z,5924
2017-08-02T14:30:16.746Z,5900
2017-08-02T14:31:26.874Z,5872
2017-08-02T14:32:37.250Z,5840
2017-08-02T14:33:47.323Z,5824
2017-08-02T14:34:57.717Z,5792
2017-08-02T14:36:08.117Z,5772
2017-08-02T14:37:18.549Z,5764
2017-08-02T14:38:28.591Z,5740
2017-08-02T14:39:38.966Z,5728
2017-08-02T14:40:49.027Z,5712
2017-08-02T14:41:59.074Z,5688
2017-08-02T14:43:09.514Z,5656
2017-08-02T14:44:19.887Z,5612
2017-08-02T14:45:30.263Z,5584
2017-08-02T14:46:40.654Z,5560
2017-08-02T14:47:51.034Z,5552
2017-08-02T14:49:03.610Z,5532
2017-08-02T14:50:14.006Z,5536
2017-08-02T14:51:24.397Z,5512
2017-08-02T14:52:34.452Z,5476
2017-08-02T14:53:44.823Z,5432
2017-08-02T14:54:55.258Z,5444
2017-08-02T14:56:05.705Z,5420
2017-08-02T14:57:17.468Z,5376
2017-08-02T14:58:27.549Z,5388
2017-08-02T14:59:37.613Z,5360
2017-08-02T15:00:47.735Z,5328
2017-08-02T15:01:58.110Z,5368
2017-08-02T15:03:08.176Z,5336
2017-08-02T15:04:18.576Z,5308
2017-08-02T15:05:28.984Z,5264
2017-08-02T15:06:39.396Z,5240
2017-08-02T15:07:49.777Z,5172
2017-08-02T15:08:59.854Z,5092
2017-08-02T15:10:10.235Z,4644
2017-08-02T15:11:20.608Z,4608
2017-08-02T15:12:31.038Z,4440
2017-08-02T15:13:40.781Z,4788
2017-08-02T15:14:51.159Z,5004
2017-08-02T15:16:01.227Z,4996
2017-08-02T15:17:11.303Z,5048
2017-08-02T15:18:21.430Z,4964
2017-08-02T15:19:31.531Z,5096
2017-08-02T15:20:41.905Z,5104
2017-08-02T15:21:52.309Z,5080
2017-08-02T15:23:02.395Z,4952
2017-08-02T15:24:12.520Z,4988
2017-08-02T15:25:23.360Z,4840
2017-08-02T15:26:33.427Z,4584
2017-08-02T15:27:46.005Z,4704
2017-08-02T15:31:21.150Z,4008
2017-08-02T15:32:31.520Z,4316
2017-08-02T15:33:41.895Z,4160
2017-08-02T15:34:52.289Z,4488
2017-08-02T15:36:02.365Z,4604
2017-08-02T15:37:12.773Z,4764
2017-08-02T15:38:23.223Z,4784
2017-08-02T15:39:33.602Z,4656
2017-08-02T15:40:43.989Z,4656
2017-08-02T15:41:54.392Z,4780
2017-08-02T15:43:04.859Z,4848
2017-08-02T15:44:15.224Z,4712
2017-08-02T15:45:25.275Z,4420
2017-08-02T15:46:35.320Z,4448
2017-08-02T15:47:45.743Z,4664
2017-08-02T15:48:56.160Z,4596
2017-08-02T15:50:06.260Z,4568
2017-08-02T15:51:16.647Z,4572
2017-08-02T15:52:27.035Z,4544
2017-08-02T15:53:37.406Z,4528
2017-08-02T15:54:47.509Z,4624
2017-08-02T15:55:57.573Z,4604
2017-08-02T15:57:07.931Z,4584
2017-08-02T15:58:18.333Z,4556
2017-08-02T15:59:28.725Z,4328
2017-08-02T16:00:38.825Z,4332
2017-08-02T16:01:49.208Z,4352
2017-08-02T16:02:59.580Z,4332
2017-08-02T16:04:09.949Z,4108
2017-08-02T16:05:21.581Z,3796
2017-08-02T16:06:38.897Z,3920
2017-08-02T16:07:52.186Z,3748
2017-08-02T16:09:02.538Z,3784
2017-08-02T16:10:12.285Z,3752
2017-08-02T16:11:22.659Z,3740
2017-08-02T16:12:33.091Z,3648
2017-08-02T16:13:43.149Z,3544
2017-08-02T16:14:55.085Z,3592
2017-08-02T16:16:04.839Z,3568
2017-08-02T16:17:15.211Z,3340
2017-08-02T16:18:25.630Z,3036
2017-08-02T16:19:35.678Z,2800
2017-08-02T16:20:46.055Z,3044
2017-08-02T16:21:56.422Z,2764
2017-08-02T16:23:06.789Z,2840
2017-08-02T16:24:16.912Z,2888
2017-08-02T16:25:27.270Z,2892
2017-08-02T16:26:37.326Z,2600
2017-08-02T16:27:47.704Z,2680
2017-08-02T16:28:58.062Z,2560
2017-08-02T16:30:08.177Z,2480
2017-08-02T16:31:17.915Z,2544
2017-08-02T16:32:29.099Z,2632
2017-08-02T16:33:39.406Z,2480